sensor_id;sensor_type;location;lat;lon;timestamp;P1;durP1;ratioP1;P2;durP2;ratioP2
62848;SDS011;48941;49.516;8.286;2022-10-26T00:00:31;15.80;;;7.60;;
62848;SDS011;48941;49.516;8.286;2022-10-26T00:02:59;16.75;;;6.90;;
62848;SDS011;48941;49.516;8.286;2022-10-26T00:05:26;10.80;;;6.35;;
62848;SDS011;48941;49.516;8.286;2022-10-26T00:07:56;14.45;;;5.50;;
62848;SDS011;48941;49.516;8.286;2022-10-26T00:10:23;10.82;;;6.00;;
62848;SDS011;48941;49.516;8.286;2022-10-26T00:12:56;13.00;;;6.40;;
62848;SDS011;48941;49.516;8.286;2022-10-26T00:15:23;12.32;;;6.45;;
62848;SDS011;48941;49.516;8.286;2022-10-26T00:17:51;15.80;;;6.72;;
62848;SDS011;48941;49.516;8.286;2022-10-26T00:20:19;14.85;;;7.93;;
62848;SDS011;48941;49.516;8.286;2022-10-26T00:22:46;19.90;;;6.88;;
62848;SDS011;48941;49.516;8.286;2022-10-26T00:25:16;13.05;;;6.60;;
62848;SDS011;48941;49.516;8.286;2022-10-26T00:27:43;14.88;;;7.05;;
62848;SDS011;48941;49.516;8.286;2022-10-26T00:30:12;12.70;;;6.18;;
62848;SDS011;48941;49.516;8.286;2022-10-26T00:32:39;8.32;;;5.93;;
62848;SDS011;48941;49.516;8.286;2022-10-26T00:35:07;11.90;;;7.00;;
62848;SDS011;48941;49.516;8.286;2022-10-26T00:37:54;14.65;;;6.85;;
62848;SDS011;48941;49.516;8.286;2022-10-26T00:40:27;11.90;;;6.72;;
62848;SDS011;48941;49.516;8.286;2022-10-26T00:42:55;14.25;;;6.85;;
62848;SDS011;48941;49.516;8.286;2022-10-26T00:45:23;10.50;;;6.00;;
62848;SDS011;48941;49.516;8.286;2022-10-26T00:47:52;12.00;;;6.50;;
62848;SDS011;48941;49.516;8.286;2022-10-26T00:50:25;18.38;;;6.68;;
62848;SDS011;48941;49.516;8.286;2022-10-26T00:52:57;11.65;;;6.60;;
62848;SDS011;48941;49.516;8.286;2022-10-26T00:55:30;9.10;;;5.68;;
62848;SDS011;48941;49.516;8.286;2022-10-26T00:58:01;11.70;;;5.97;;
62848;SDS011;48941;49.516;8.286;2022-10-26T01:00:32;13.05;;;5.88;;
62848;SDS011;48941;49.516;8.286;2022-10-26T01:03:00;11.32;;;6.55;;
62848;SDS011;48941;49.516;8.286;2022-10-26T01:05:32;14.27;;;6.60;;
62848;SDS011;48941;49.516;8.286;2022-10-26T01:08:03;12.15;;;6.43;;
62848;SDS011;48941;49.516;8.286;2022-10-26T01:10:32;13.20;;;6.15;;
62848;SDS011;48941;49.516;8.286;2022-10-26T01:13:01;14.07;;;6.70;;
62848;SDS011;48941;49.516;8.286;2022-10-26T01:15:38;13.18;;;6.30;;
62848;SDS011;48941;49.516;8.286;2022-10-26T01:18:14;12.00;;;6.60;;
62848;SDS011;48941;49.516;8.286;2022-10-26T01:21:11;11.88;;;6.63;;
62848;SDS011;48941;49.516;8.286;2022-10-26T01:24:06;12.23;;;6.43;;
62848;SDS011;48941;49.516;8.286;2022-10-26T01:27:02;14.52;;;6.57;;
62848;SDS011;48941;49.516;8.286;2022-10-26T01:29:45;13.20;;;7.20;;
62848;SDS011;48941;49.516;8.286;2022-10-26T01:32:25;11.02;;;6.50;;
62848;SDS011;48941;49.516;8.286;2022-10-26T01:34:58;14.95;;;7.07;;
62848;SDS011;48941;49.516;8.286;2022-10-26T01:37:35;16.13;;;7.10;;
62848;SDS011;48941;49.516;8.286;2022-10-26T01:40:08;14.25;;;7.03;;
62848;SDS011;48941;49.516;8.286;2022-10-26T01:42:41;17.20;;;6.75;;
62848;SDS011;48941;49.516;8.286;2022-10-26T01:45:14;13.70;;;7.25;;
62848;SDS011;48941;49.516;8.286;2022-10-26T01:47:45;13.50;;;7.20;;
62848;SDS011;48941;49.516;8.286;2022-10-26T01:50:14;14.00;;;6.30;;
62848;SDS011;48941;49.516;8.286;2022-10-26T01:52:46;13.90;;;6.63;;
62848;SDS011;48941;49.516;8.286;2022-10-26T01:58:09;13.90;;;7.90;;
62848;SDS011;48941;49.516;8.286;2022-10-26T02:00:50;14.25;;;6.93;;
62848;SDS011;48941;49.516;8.286;2022-10-26T02:03:27;11.15;;;6.55;;
62848;SDS011;48941;49.516;8.286;2022-10-26T02:06:05;12.48;;;7.00;;
62848;SDS011;48941;49.516;8.286;2022-10-26T02:08:49;11.02;;;6.45;;
62848;SDS011;48941;49.516;8.286;2022-10-26T02:11:28;11.68;;;6.43;;
62848;SDS011;48941;49.516;8.286;2022-10-26T02:14:06;12.00;;;6.15;;
62848;SDS011;48941;49.516;8.286;2022-10-26T02:16:48;10.95;;;6.65;;
62848;SDS011;48941;49.516;8.286;2022-10-26T02:19:26;14.38;;;6.22;;
62848;SDS011;48941;49.516;8.286;2022-10-26T02:22:01;13.05;;;6.50;;
62848;SDS011;48941;49.516;8.286;2022-10-26T02:24:32;13.23;;;6.80;;
62848;SDS011;48941;49.516;8.286;2022-10-26T02:27:03;12.48;;;6.55;;
62848;SDS011;48941;49.516;8.286;2022-10-26T02:29:38;12.43;;;5.82;;
62848;SDS011;48941;49.516;8.286;2022-10-26T02:32:07;10.30;;;6.22;;
62848;SDS011;48941;49.516;8.286;2022-10-26T02:34:38;12.57;;;7.00;;
62848;SDS011;48941;49.516;8.286;2022-10-26T02:37:11;11.93;;;6.30;;
62848;SDS011;48941;49.516;8.286;2022-10-26T02:39:42;11.93;;;6.40;;
62848;SDS011;48941;49.516;8.286;2022-10-26T02:42:13;10.60;;;6.35;;
62848;SDS011;48941;49.516;8.286;2022-10-26T02:44:43;13.48;;;6.30;;
62848;SDS011;48941;49.516;8.286;2022-10-26T02:47:14;12.80;;;5.95;;
62848;SDS011;48941;49.516;8.286;2022-10-26T02:49:44;15.80;;;6.63;;
62848;SDS011;48941;49.516;8.286;2022-10-26T02:52:14;14.77;;;7.22;;
62848;SDS011;48941;49.516;8.286;2022-10-26T02:54:49;12.82;;;6.38;;
62848;SDS011;48941;49.516;8.286;2022-10-26T02:57:23;10.23;;;6.03;;
62848;SDS011;48941;49.516;8.286;2022-10-26T02:59:56;12.23;;;6.35;;
62848;SDS011;48941;49.516;8.286;2022-10-26T03:02:25;8.07;;;5.72;;
62848;SDS011;48941;49.516;8.286;2022-10-26T03:04:56;11.50;;;6.07;;
62848;SDS011;48941;49.516;8.286;2022-10-26T03:07:34;13.23;;;6.50;;
62848;SDS011;48941;49.516;8.286;2022-10-26T03:10:02;10.82;;;6.45;;
62848;SDS011;48941;49.516;8.286;2022-10-26T03:12:30;14.23;;;7.22;;
62848;SDS011;48941;49.516;8.286;2022-10-26T03:14:58;13.93;;;6.65;;
62848;SDS011;48941;49.516;8.286;2022-10-26T03:17:26;18.10;;;7.30;;
62848;SDS011;48941;49.516;8.286;2022-10-26T03:19:54;10.77;;;6.80;;
62848;SDS011;48941;49.516;8.286;2022-10-26T03:22:23;14.82;;;6.75;;
62848;SDS011;48941;49.516;8.286;2022-10-26T03:24:51;14.18;;;7.10;;
62848;SDS011;48941;49.516;8.286;2022-10-26T03:27:18;10.32;;;6.63;;
62848;SDS011;48941;49.516;8.286;2022-10-26T03:29:46;12.32;;;6.57;;
62848;SDS011;48941;49.516;8.286;2022-10-26T03:32:14;10.00;;;6.75;;
62848;SDS011;48941;49.516;8.286;2022-10-26T03:34:42;15.57;;;7.05;;
62848;SDS011;48941;49.516;8.286;2022-10-26T03:37:10;13.90;;;6.28;;
62848;SDS011;48941;49.516;8.286;2022-10-26T03:39:39;10.50;;;5.75;;
62848;SDS011;48941;49.516;8.286;2022-10-26T03:42:07;12.38;;;5.78;;
62848;SDS011;48941;49.516;8.286;2022-10-26T03:44:35;9.20;;;6.22;;
62848;SDS011;48941;49.516;8.286;2022-10-26T03:47:03;12.00;;;6.18;;
62848;SDS011;48941;49.516;8.286;2022-10-26T03:49:30;13.10;;;6.70;;
62848;SDS011;48941;49.516;8.286;2022-10-26T03:51:58;15.98;;;7.10;;
62848;SDS011;48941;49.516;8.286;2022-10-26T03:54:26;16.83;;;7.35;;
62848;SDS011;48941;49.516;8.286;2022-10-26T03:56:55;12.65;;;7.10;;
62848;SDS011;48941;49.516;8.286;2022-10-26T03:59:23;14.68;;;6.75;;
62848;SDS011;48941;49.516;8.286;2022-10-26T04:01:51;11.23;;;6.43;;
62848;SDS011;48941;49.516;8.286;2022-10-26T04:04:23;12.52;;;6.60;;
62848;SDS011;48941;49.516;8.286;2022-10-26T04:06:51;16.83;;;7.32;;
62848;SDS011;48941;49.516;8.286;2022-10-26T04:09:19;13.70;;;6.25;;
62848;SDS011;48941;49.516;8.286;2022-10-26T04:11:46;13.73;;;6.63;;
62848;SDS011;48941;49.516;8.286;2022-10-26T04:14:16;26.42;;;12.07;;
62848;SDS011;48941;49.516;8.286;2022-10-26T04:16:43;20.90;;;8.43;;
62848;SDS011;48941;49.516;8.286;2022-10-26T04:19:11;22.45;;;9.18;;
62848;SDS011;48941;49.516;8.286;2022-10-26T04:21:39;18.77;;;7.63;;
62848;SDS011;48941;49.516;8.286;2022-10-26T04:24:08;13.45;;;6.82;;
62848;SDS011;48941;49.516;8.286;2022-10-26T04:26:36;14.23;;;6.50;;
62848;SDS011;48941;49.516;8.286;2022-10-26T04:29:04;13.48;;;6.60;;
62848;SDS011;48941;49.516;8.286;2022-10-26T04:31:35;10.55;;;5.90;;
62848;SDS011;48941;49.516;8.286;2022-10-26T04:34:02;11.93;;;5.75;;
62848;SDS011;48941;49.516;8.286;2022-10-26T04:36:30;7.95;;;5.35;;
62848;SDS011;48941;49.516;8.286;2022-10-26T04:38:59;10.70;;;5.75;;
62848;SDS011;48941;49.516;8.286;2022-10-26T04:41:27;10.48;;;5.10;;
62848;SDS011;48941;49.516;8.286;2022-10-26T04:43:55;14.65;;;5.50;;
62848;SDS011;48941;49.516;8.286;2022-10-26T04:46:23;10.02;;;5.38;;
62848;SDS011;48941;49.516;8.286;2022-10-26T04:48:52;15.80;;;5.60;;
62848;SDS011;48941;49.516;8.286;2022-10-26T04:51:20;12.25;;;5.40;;
62848;SDS011;48941;49.516;8.286;2022-10-26T04:53:48;7.40;;;4.80;;
62848;SDS011;48941;49.516;8.286;2022-10-26T04:56:15;11.00;;;5.05;;
62848;SDS011;48941;49.516;8.286;2022-10-26T04:58:43;12.57;;;5.07;;
62848;SDS011;48941;49.516;8.286;2022-10-26T05:01:11;10.23;;;5.03;;
62848;SDS011;48941;49.516;8.286;2022-10-26T05:03:39;6.57;;;5.03;;
62848;SDS011;48941;49.516;8.286;2022-10-26T05:06:08;9.70;;;5.10;;
62848;SDS011;48941;49.516;8.286;2022-10-26T05:08:36;11.38;;;5.68;;
62848;SDS011;48941;49.516;8.286;2022-10-26T05:11:04;10.30;;;4.85;;
62848;SDS011;48941;49.516;8.286;2022-10-26T05:13:32;10.82;;;5.13;;
62848;SDS011;48941;49.516;8.286;2022-10-26T05:15:59;9.60;;;5.30;;
62848;SDS011;48941;49.516;8.286;2022-10-26T05:18:27;9.65;;;4.90;;
62848;SDS011;48941;49.516;8.286;2022-10-26T05:20:55;9.73;;;4.57;;
62848;SDS011;48941;49.516;8.286;2022-10-26T05:23:24;11.80;;;4.88;;
62848;SDS011;48941;49.516;8.286;2022-10-26T05:25:53;7.10;;;4.97;;
62848;SDS011;48941;49.516;8.286;2022-10-26T05:28:21;16.65;;;6.40;;
62848;SDS011;48941;49.516;8.286;2022-10-26T05:30:49;11.90;;;5.10;;
62848;SDS011;48941;49.516;8.286;2022-10-26T05:33:17;7.07;;;4.40;;
62848;SDS011;48941;49.516;8.286;2022-10-26T05:35:45;8.38;;;4.65;;
62848;SDS011;48941;49.516;8.286;2022-10-26T05:38:13;9.93;;;4.30;;
62848;SDS011;48941;49.516;8.286;2022-10-26T05:40:47;11.48;;;4.55;;
62848;SDS011;48941;49.516;8.286;2022-10-26T05:43:16;7.68;;;4.20;;
62848;SDS011;48941;49.516;8.286;2022-10-26T05:45:46;8.57;;;4.07;;
62848;SDS011;48941;49.516;8.286;2022-10-26T05:48:16;7.20;;;4.35;;
62848;SDS011;48941;49.516;8.286;2022-10-26T05:50:44;10.18;;;4.38;;
62848;SDS011;48941;49.516;8.286;2022-10-26T05:53:12;8.93;;;4.45;;
62848;SDS011;48941;49.516;8.286;2022-10-26T05:55:40;10.55;;;4.72;;
62848;SDS011;48941;49.516;8.286;2022-10-26T05:58:11;7.65;;;4.70;;
62848;SDS011;48941;49.516;8.286;2022-10-26T06:00:43;11.25;;;4.20;;
62848;SDS011;48941;49.516;8.286;2022-10-26T06:03:22;9.25;;;4.15;;
62848;SDS011;48941;49.516;8.286;2022-10-26T06:05:59;10.40;;;4.20;;
62848;SDS011;48941;49.516;8.286;2022-10-26T06:08:32;9.65;;;3.92;;
62848;SDS011;48941;49.516;8.286;2022-10-26T06:11:01;7.57;;;4.10;;
62848;SDS011;48941;49.516;8.286;2022-10-26T06:13:30;11.32;;;4.38;;
62848;SDS011;48941;49.516;8.286;2022-10-26T06:16:01;6.43;;;4.00;;
62848;SDS011;48941;49.516;8.286;2022-10-26T06:18:42;8.40;;;4.13;;
62848;SDS011;48941;49.516;8.286;2022-10-26T06:21:30;6.13;;;4.03;;
62848;SDS011;48941;49.516;8.286;2022-10-26T06:24:08;8.88;;;4.00;;
62848;SDS011;48941;49.516;8.286;2022-10-26T06:26:44;8.48;;;4.13;;
62848;SDS011;48941;49.516;8.286;2022-10-26T06:29:23;8.85;;;4.45;;
62848;SDS011;48941;49.516;8.286;2022-10-26T06:32:02;6.95;;;4.03;;
62848;SDS011;48941;49.516;8.286;2022-10-26T06:34:32;7.65;;;4.28;;
62848;SDS011;48941;49.516;8.286;2022-10-26T06:37:01;7.72;;;4.20;;
62848;SDS011;48941;49.516;8.286;2022-10-26T06:39:34;5.97;;;3.97;;
62848;SDS011;48941;49.516;8.286;2022-10-26T06:42:06;7.28;;;4.30;;
62848;SDS011;48941;49.516;8.286;2022-10-26T06:44:38;9.80;;;4.30;;
62848;SDS011;48941;49.516;8.286;2022-10-26T06:47:09;8.27;;;4.07;;
62848;SDS011;48941;49.516;8.286;2022-10-26T06:49:52;7.38;;;3.88;;
62848;SDS011;48941;49.516;8.286;2022-10-26T06:52:26;7.95;;;3.95;;
62848;SDS011;48941;49.516;8.286;2022-10-26T06:55:00;6.72;;;4.05;;
62848;SDS011;48941;49.516;8.286;2022-10-26T06:57:33;7.95;;;4.05;;
62848;SDS011;48941;49.516;8.286;2022-10-26T07:00:07;7.68;;;3.83;;
62848;SDS011;48941;49.516;8.286;2022-10-26T07:02:41;12.32;;;4.05;;
62848;SDS011;48941;49.516;8.286;2022-10-26T07:05:09;10.75;;;4.10;;
62848;SDS011;48941;49.516;8.286;2022-10-26T07:07:39;9.73;;;3.92;;
62848;SDS011;48941;49.516;8.286;2022-10-26T07:10:09;8.77;;;4.47;;
62848;SDS011;48941;49.516;8.286;2022-10-26T07:12:37;9.82;;;4.40;;
62848;SDS011;48941;49.516;8.286;2022-10-26T07:15:06;13.25;;;4.57;;
62848;SDS011;48941;49.516;8.286;2022-10-26T07:17:40;9.82;;;4.20;;
62848;SDS011;48941;49.516;8.286;2022-10-26T07:20:10;8.52;;;4.60;;
62848;SDS011;48941;49.516;8.286;2022-10-26T07:22:38;8.82;;;4.63;;
62848;SDS011;48941;49.516;8.286;2022-10-26T07:25:08;18.85;;;5.03;;
62848;SDS011;48941;49.516;8.286;2022-10-26T07:27:37;7.50;;;4.53;;
62848;SDS011;48941;49.516;8.286;2022-10-26T07:30:07;10.38;;;4.45;;
62848;SDS011;48941;49.516;8.286;2022-10-26T07:32:36;7.88;;;4.13;;
62848;SDS011;48941;49.516;8.286;2022-10-26T07:35:04;8.82;;;4.35;;
62848;SDS011;48941;49.516;8.286;2022-10-26T07:37:32;7.25;;;4.63;;
62848;SDS011;48941;49.516;8.286;2022-10-26T07:40:00;6.80;;;4.40;;
62848;SDS011;48941;49.516;8.286;2022-10-26T07:42:32;7.75;;;4.60;;
62848;SDS011;48941;49.516;8.286;2022-10-26T07:45:00;8.88;;;4.38;;
62848;SDS011;48941;49.516;8.286;2022-10-26T07:47:29;9.85;;;4.45;;
62848;SDS011;48941;49.516;8.286;2022-10-26T07:49:56;13.25;;;5.13;;
62848;SDS011;48941;49.516;8.286;2022-10-26T07:52:24;8.68;;;4.55;;
62848;SDS011;48941;49.516;8.286;2022-10-26T07:54:52;11.27;;;4.47;;
62848;SDS011;48941;49.516;8.286;2022-10-26T07:57:20;10.15;;;4.38;;
62848;SDS011;48941;49.516;8.286;2022-10-26T07:59:48;11.68;;;4.68;;
62848;SDS011;48941;49.516;8.286;2022-10-26T08:02:16;11.25;;;4.80;;
62848;SDS011;48941;49.516;8.286;2022-10-26T08:04:45;10.20;;;4.60;;
62848;SDS011;48941;49.516;8.286;2022-10-26T08:07:13;9.18;;;4.53;;
62848;SDS011;48941;49.516;8.286;2022-10-26T08:09:41;10.85;;;4.40;;
62848;SDS011;48941;49.516;8.286;2022-10-26T08:12:09;10.80;;;4.90;;
62848;SDS011;48941;49.516;8.286;2022-10-26T08:14:39;8.00;;;4.40;;
62848;SDS011;48941;49.516;8.286;2022-10-26T08:17:06;6.35;;;4.28;;
62848;SDS011;48941;49.516;8.286;2022-10-26T08:19:34;9.73;;;4.55;;
62848;SDS011;48941;49.516;8.286;2022-10-26T08:22:04;8.57;;;3.88;;
62848;SDS011;48941;49.516;8.286;2022-10-26T08:24:32;6.95;;;3.83;;
62848;SDS011;48941;49.516;8.286;2022-10-26T08:27:00;9.68;;;4.25;;
62848;SDS011;48941;49.516;8.286;2022-10-26T08:29:28;11.05;;;4.25;;
62848;SDS011;48941;49.516;8.286;2022-10-26T08:31:56;10.57;;;4.25;;
62848;SDS011;48941;49.516;8.286;2022-10-26T08:34:24;9.68;;;4.60;;
62848;SDS011;48941;49.516;8.286;2022-10-26T08:36:52;10.27;;;4.35;;
62848;SDS011;48941;49.516;8.286;2022-10-26T08:39:21;9.80;;;4.10;;
62848;SDS011;48941;49.516;8.286;2022-10-26T08:41:49;11.00;;;4.30;;
62848;SDS011;48941;49.516;8.286;2022-10-26T08:44:23;8.65;;;4.47;;
62848;SDS011;48941;49.516;8.286;2022-10-26T08:46:56;11.65;;;4.60;;
62848;SDS011;48941;49.516;8.286;2022-10-26T08:49:27;11.45;;;4.53;;
62848;SDS011;48941;49.516;8.286;2022-10-26T08:51:58;13.00;;;4.88;;
62848;SDS011;48941;49.516;8.286;2022-10-26T08:54:31;11.32;;;4.38;;
62848;SDS011;48941;49.516;8.286;2022-10-26T08:57:03;10.90;;;5.20;;
62848;SDS011;48941;49.516;8.286;2022-10-26T08:59:42;10.45;;;5.35;;
62848;SDS011;48941;49.516;8.286;2022-10-26T09:02:14;13.85;;;5.75;;
62848;SDS011;48941;49.516;8.286;2022-10-26T09:04:43;6.00;;;4.20;;
62848;SDS011;48941;49.516;8.286;2022-10-26T09:07:14;9.77;;;4.55;;
62848;SDS011;48941;49.516;8.286;2022-10-26T09:09:55;7.20;;;4.15;;
62848;SDS011;48941;49.516;8.286;2022-10-26T09:12:32;17.52;;;5.35;;
62848;SDS011;48941;49.516;8.286;2022-10-26T09:15:10;10.02;;;4.95;;
62848;SDS011;48941;49.516;8.286;2022-10-26T09:17:47;14.80;;;4.63;;
62848;SDS011;48941;49.516;8.286;2022-10-26T09:20:29;11.98;;;4.90;;
62848;SDS011;48941;49.516;8.286;2022-10-26T09:23:15;12.00;;;4.20;;
62848;SDS011;48941;49.516;8.286;2022-10-26T09:25:53;7.45;;;3.50;;
62848;SDS011;48941;49.516;8.286;2022-10-26T09:28:25;7.85;;;3.65;;
62848;SDS011;48941;49.516;8.286;2022-10-26T09:30:57;8.38;;;3.50;;
62848;SDS011;48941;49.516;8.286;2022-10-26T09:33:27;8.85;;;3.45;;
62848;SDS011;48941;49.516;8.286;2022-10-26T09:35:59;10.00;;;3.15;;
62848;SDS011;48941;49.516;8.286;2022-10-26T09:38:29;6.78;;;3.17;;
62848;SDS011;48941;49.516;8.286;2022-10-26T09:41:01;12.77;;;3.45;;
62848;SDS011;48941;49.516;8.286;2022-10-26T09:43:35;5.13;;;3.30;;
62848;SDS011;48941;49.516;8.286;2022-10-26T09:46:10;9.65;;;3.67;;
62848;SDS011;48941;49.516;8.286;2022-10-26T09:48:43;8.13;;;3.45;;
62848;SDS011;48941;49.516;8.286;2022-10-26T09:51:15;10.50;;;3.38;;
62848;SDS011;48941;49.516;8.286;2022-10-26T09:53:43;9.90;;;3.50;;
62848;SDS011;48941;49.516;8.286;2022-10-26T09:56:13;7.97;;;3.40;;
62848;SDS011;48941;49.516;8.286;2022-10-26T09:58:43;6.15;;;3.17;;
62848;SDS011;48941;49.516;8.286;2022-10-26T10:01:21;7.85;;;3.90;;
62848;SDS011;48941;49.516;8.286;2022-10-26T10:04:07;9.35;;;3.92;;
62848;SDS011;48941;49.516;8.286;2022-10-26T10:06:37;6.53;;;3.73;;
62848;SDS011;48941;49.516;8.286;2022-10-26T10:09:05;5.65;;;3.33;;
62848;SDS011;48941;49.516;8.286;2022-10-26T10:11:39;6.33;;;3.90;;
62848;SDS011;48941;49.516;8.286;2022-10-26T10:14:12;6.13;;;3.80;;
62848;SDS011;48941;49.516;8.286;2022-10-26T10:16:49;8.18;;;3.22;;
62848;SDS011;48941;49.516;8.286;2022-10-26T10:19:21;10.25;;;3.42;;
62848;SDS011;48941;49.516;8.286;2022-10-26T10:21:53;7.03;;;3.30;;
62848;SDS011;48941;49.516;8.286;2022-10-26T10:24:24;11.68;;;3.13;;
62848;SDS011;48941;49.516;8.286;2022-10-26T10:27:00;9.27;;;3.60;;
62848;SDS011;48941;49.516;8.286;2022-10-26T10:29:29;7.75;;;3.40;;
62848;SDS011;48941;49.516;8.286;2022-10-26T10:31:59;6.10;;;3.60;;
62848;SDS011;48941;49.516;8.286;2022-10-26T10:34:29;5.63;;;3.10;;
62848;SDS011;48941;49.516;8.286;2022-10-26T10:36:58;5.85;;;2.83;;
62848;SDS011;48941;49.516;8.286;2022-10-26T10:39:33;4.85;;;2.67;;
62848;SDS011;48941;49.516;8.286;2022-10-26T10:42:10;8.15;;;2.83;;
62848;SDS011;48941;49.516;8.286;2022-10-26T10:44:43;7.90;;;2.92;;
62848;SDS011;48941;49.516;8.286;2022-10-26T10:47:17;16.58;;;2.90;;
62848;SDS011;48941;49.516;8.286;2022-10-26T10:49:52;10.15;;;3.15;;
62848;SDS011;48941;49.516;8.286;2022-10-26T10:52:24;9.15;;;2.65;;
62848;SDS011;48941;49.516;8.286;2022-10-26T10:54:56;5.40;;;2.53;;
62848;SDS011;48941;49.516;8.286;2022-10-26T10:57:38;8.52;;;2.30;;
62848;SDS011;48941;49.516;8.286;2022-10-26T11:00:19;7.63;;;2.55;;
62848;SDS011;48941;49.516;8.286;2022-10-26T11:02:54;12.23;;;2.75;;
62848;SDS011;48941;49.516;8.286;2022-10-26T11:05:37;7.97;;;2.35;;
62848;SDS011;48941;49.516;8.286;2022-10-26T11:08:18;5.72;;;2.60;;
62848;SDS011;48941;49.516;8.286;2022-10-26T11:10:50;8.32;;;2.15;;
62848;SDS011;48941;49.516;8.286;2022-10-26T11:13:23;8.63;;;1.98;;
62848;SDS011;48941;49.516;8.286;2022-10-26T11:15:54;7.07;;;2.42;;
62848;SDS011;48941;49.516;8.286;2022-10-26T11:18:28;5.13;;;2.20;;
62848;SDS011;48941;49.516;8.286;2022-10-26T11:21:01;6.97;;;2.63;;
62848;SDS011;48941;49.516;8.286;2022-10-26T11:23:34;5.28;;;2.25;;
62848;SDS011;48941;49.516;8.286;2022-10-26T11:26:08;7.68;;;2.50;;
62848;SDS011;48941;49.516;8.286;2022-10-26T11:28:44;4.90;;;2.50;;
62848;SDS011;48941;49.516;8.286;2022-10-26T11:31:17;8.30;;;2.30;;
62848;SDS011;48941;49.516;8.286;2022-10-26T11:33:53;6.43;;;2.50;;
62848;SDS011;48941;49.516;8.286;2022-10-26T11:39:04;9.50;;;2.78;;
62848;SDS011;48941;49.516;8.286;2022-10-26T11:41:42;7.78;;;2.33;;
62848;SDS011;48941;49.516;8.286;2022-10-26T11:44:17;10.02;;;2.40;;
62848;SDS011;48941;49.516;8.286;2022-10-26T11:46:51;5.95;;;2.92;;
62848;SDS011;48941;49.516;8.286;2022-10-26T11:49:23;3.83;;;2.30;;
62848;SDS011;48941;49.516;8.286;2022-10-26T11:52:01;6.72;;;2.40;;
62848;SDS011;48941;49.516;8.286;2022-10-26T11:54:36;5.38;;;2.22;;
62848;SDS011;48941;49.516;8.286;2022-10-26T11:57:10;9.02;;;2.40;;
62848;SDS011;48941;49.516;8.286;2022-10-26T11:59:41;7.82;;;2.38;;
62848;SDS011;48941;49.516;8.286;2022-10-26T12:02:14;6.80;;;2.50;;
62848;SDS011;48941;49.516;8.286;2022-10-26T12:04:45;4.22;;;2.20;;
62848;SDS011;48941;49.516;8.286;2022-10-26T12:07:19;5.60;;;2.00;;
62848;SDS011;48941;49.516;8.286;2022-10-26T12:09:51;5.97;;;2.03;;
62848;SDS011;48941;49.516;8.286;2022-10-26T12:12:22;9.45;;;2.30;;
62848;SDS011;48941;49.516;8.286;2022-10-26T12:15:08;6.45;;;1.98;;
62848;SDS011;48941;49.516;8.286;2022-10-26T12:20:24;8.57;;;2.05;;
62848;SDS011;48941;49.516;8.286;2022-10-26T12:23:16;8.02;;;2.33;;
62848;SDS011;48941;49.516;8.286;2022-10-26T12:32:02;4.57;;;2.00;;
62848;SDS011;48941;49.516;8.286;2022-10-26T12:37:34;5.93;;;2.10;;
62848;SDS011;48941;49.516;8.286;2022-10-26T12:52:41;7.63;;;2.10;;
62848;SDS011;48941;49.516;8.286;2022-10-26T12:58:18;4.32;;;2.10;;
62848;SDS011;48941;49.516;8.286;2022-10-26T13:04:46;5.38;;;2.20;;
62848;SDS011;48941;49.516;8.286;2022-10-26T13:07:33;4.28;;;2.00;;
62848;SDS011;48941;49.516;8.286;2022-10-26T13:10:05;3.65;;;1.90;;
62848;SDS011;48941;49.516;8.286;2022-10-26T13:12:47;6.15;;;2.17;;
62848;SDS011;48941;49.516;8.286;2022-10-26T13:15:22;5.03;;;1.90;;
62848;SDS011;48941;49.516;8.286;2022-10-26T13:17:54;6.60;;;2.25;;
62848;SDS011;48941;49.516;8.286;2022-10-26T13:20:25;5.95;;;2.47;;
62848;SDS011;48941;49.516;8.286;2022-10-26T13:22:55;10.80;;;2.80;;
62848;SDS011;48941;49.516;8.286;2022-10-26T13:25:25;4.93;;;2.30;;
62848;SDS011;48941;49.516;8.286;2022-10-26T13:28:02;6.78;;;2.90;;
62848;SDS011;48941;49.516;8.286;2022-10-26T13:33:22;6.05;;;2.80;;
62848;SDS011;48941;49.516;8.286;2022-10-26T13:36:00;5.00;;;2.40;;
62848;SDS011;48941;49.516;8.286;2022-10-26T13:38:31;5.22;;;3.10;;
62848;SDS011;48941;49.516;8.286;2022-10-26T13:41:04;7.75;;;2.70;;
62848;SDS011;48941;49.516;8.286;2022-10-26T13:43:35;9.02;;;3.20;;
62848;SDS011;48941;49.516;8.286;2022-10-26T13:46:04;5.20;;;2.10;;
62848;SDS011;48941;49.516;8.286;2022-10-26T13:48:36;2.88;;;1.70;;
62848;SDS011;48941;49.516;8.286;2022-10-26T13:51:15;2.58;;;1.70;;
62848;SDS011;48941;49.516;8.286;2022-10-26T13:53:49;2.33;;;1.60;;
62848;SDS011;48941;49.516;8.286;2022-10-26T13:56:23;5.38;;;1.90;;
62848;SDS011;48941;49.516;8.286;2022-10-26T13:58:56;3.85;;;1.85;;
62848;SDS011;48941;49.516;8.286;2022-10-26T14:01:26;8.73;;;1.60;;
62848;SDS011;48941;49.516;8.286;2022-10-26T14:03:55;2.42;;;1.90;;
62848;SDS011;48941;49.516;8.286;2022-10-26T14:06:25;5.93;;;1.98;;
62848;SDS011;48941;49.516;8.286;2022-10-26T14:08:56;2.00;;;1.50;;
62848;SDS011;48941;49.516;8.286;2022-10-26T14:11:30;6.47;;;2.33;;
62848;SDS011;48941;49.516;8.286;2022-10-26T14:14:01;9.38;;;2.42;;
62848;SDS011;48941;49.516;8.286;2022-10-26T14:16:31;4.90;;;2.30;;
62848;SDS011;48941;49.516;8.286;2022-10-26T14:19:00;4.53;;;2.10;;
62848;SDS011;48941;49.516;8.286;2022-10-26T14:21:29;12.85;;;2.10;;
62848;SDS011;48941;49.516;8.286;2022-10-26T14:23:57;6.15;;;2.13;;
62848;SDS011;48941;49.516;8.286;2022-10-26T14:26:37;5.43;;;2.05;;
62848;SDS011;48941;49.516;8.286;2022-10-26T14:29:13;4.43;;;1.95;;
62848;SDS011;48941;49.516;8.286;2022-10-26T14:31:43;6.63;;;2.17;;
62848;SDS011;48941;49.516;8.286;2022-10-26T14:34:11;7.07;;;2.45;;
62848;SDS011;48941;49.516;8.286;2022-10-26T14:36:40;11.05;;;2.60;;
62848;SDS011;48941;49.516;8.286;2022-10-26T14:39:14;7.53;;;2.60;;
62848;SDS011;48941;49.516;8.286;2022-10-26T14:41:54;8.63;;;2.40;;
62848;SDS011;48941;49.516;8.286;2022-10-26T14:44:23;8.13;;;2.80;;
62848;SDS011;48941;49.516;8.286;2022-10-26T14:46:52;7.32;;;2.50;;
62848;SDS011;48941;49.516;8.286;2022-10-26T14:49:21;7.75;;;2.80;;
62848;SDS011;48941;49.516;8.286;2022-10-26T14:51:54;3.13;;;2.22;;
62848;SDS011;48941;49.516;8.286;2022-10-26T14:54:25;5.50;;;2.30;;
62848;SDS011;48941;49.516;8.286;2022-10-26T14:56:56;4.47;;;1.83;;
62848;SDS011;48941;49.516;8.286;2022-10-26T14:59:28;2.28;;;1.65;;
62848;SDS011;48941;49.516;8.286;2022-10-26T15:01:58;4.78;;;1.88;;
62848;SDS011;48941;49.516;8.286;2022-10-26T15:04:31;4.03;;;1.73;;
62848;SDS011;48941;49.516;8.286;2022-10-26T15:07:12;8.23;;;1.63;;
62848;SDS011;48941;49.516;8.286;2022-10-26T15:09:43;3.08;;;1.80;;
62848;SDS011;48941;49.516;8.286;2022-10-26T15:12:20;3.28;;;1.65;;
62848;SDS011;48941;49.516;8.286;2022-10-26T15:14:53;3.58;;;1.80;;
62848;SDS011;48941;49.516;8.286;2022-10-26T15:17:23;8.73;;;1.73;;
62848;SDS011;48941;49.516;8.286;2022-10-26T15:19:57;3.60;;;1.98;;
62848;SDS011;48941;49.516;8.286;2022-10-26T15:22:30;6.85;;;2.03;;
62848;SDS011;48941;49.516;8.286;2022-10-26T15:24:59;3.67;;;1.77;;
62848;SDS011;48941;49.516;8.286;2022-10-26T15:27:30;3.35;;;1.60;;
62848;SDS011;48941;49.516;8.286;2022-10-26T15:30:08;6.65;;;2.25;;
62848;SDS011;48941;49.516;8.286;2022-10-26T15:32:41;6.43;;;1.70;;
62848;SDS011;48941;49.516;8.286;2022-10-26T15:35:21;6.95;;;2.10;;
62848;SDS011;48941;49.516;8.286;2022-10-26T15:37:52;4.53;;;2.08;;
62848;SDS011;48941;49.516;8.286;2022-10-26T15:40:22;9.85;;;2.00;;
62848;SDS011;48941;49.516;8.286;2022-10-26T15:42:58;5.93;;;1.70;;
62848;SDS011;48941;49.516;8.286;2022-10-26T15:45:28;8.35;;;2.30;;
62848;SDS011;48941;49.516;8.286;2022-10-26T15:47:58;7.65;;;2.03;;